Time;durP1;ratioP1;P1;durP2;ratioP2;P2;SDS_P1;SDS_P2;PMS_P1;PMS_P2;Temp;Humidity;BMP_temperature;BMP_pressure;BME280_temperature;BME280_humidity;BME280_pressure;Samples;Min_cycle;Max_cycle;Signal;HPM_P1;HPM_P2
2023/05/28 00:00:34;;;;;;;8.90;3.47;;;;;;;13.90;61.04;100572.50;1538847;84;22357;-81
2023/05/28 00:03:01;;;;;;;11.97;3.93;;;;;;;13.87;61.20;100578.16;1542456;83;22349;-80
2023/05/28 00:05:27;;;;;;;9.40;3.67;;;;;;;13.87;61.00;100575.48;1541506;84;21485;-79
2023/05/28 00:07:53;;;;;;;10.10;3.70;;;;;;;13.84;61.18;100578.48;1542193;84;21470;-79
2023/05/28 00:10:19;;;;;;;17.13;5.17;;;;;;;13.81;61.18;100576.63;1540711;84;22291;-80
2023/05/28 00:12:45;;;;;;;11.93;3.70;;;;;;;13.80;61.08;100575.80;1545523;83;21492;-80
2023/05/28 00:15:12;;;;;;;6.53;3.00;;;;;;;13.77;61.95;100569.48;1534422;84;21597;-80
2023/05/28 00:17:38;;;;;;;5.70;2.83;;;;;;;13.75;61.36;100570.14;1541181;84;21630;-81
2023/05/28 00:20:05;;;;;;;9.17;3.53;;;;;;;13.72;62.18;100567.34;1541221;84;21345;-80
2023/05/28 00:22:32;;;;;;;8.73;3.10;;;;;;;13.71;61.68;100566.16;1528711;84;22320;-80
2023/05/28 00:24:58;;;;;;;10.60;3.83;;;;;;;13.68;61.93;100562.50;1530269;84;21463;-79
2023/05/28 00:27:24;;;;;;;7.70;3.30;;;;;;;13.66;62.53;100561.82;1537836;84;21553;-80
2023/05/28 00:29:50;;;;;;;11.57;3.97;;;;;;;13.64;62.74;100565.16;1532282;84;21420;-80
2023/05/28 00:32:16;;;;;;;9.40;3.87;;;;;;;13.59;62.63;100558.17;1531419;84;21449;-80
2023/05/28 00:34:42;;;;;;;9.20;4.30;;;;;;;13.59;63.25;100558.17;1534350;84;21545;-80
2023/05/28 00:37:08;;;;;;;8.37;3.40;;;;;;;13.58;63.22;100561.80;1531600;84;21471;-81
2023/05/28 00:39:35;;;;;;;9.47;3.70;;;;;;;13.54;63.55;100558.64;1522813;84;21390;-82
2023/05/28 00:42:03;;;;;;;13.13;3.07;;;;;;;13.52;63.25;100553.98;1523606;84;22225;-82
2023/05/28 00:44:34;;;;;;;8.57;3.40;;;;;;;13.46;64.06;100554.14;1530759;84;22429;-82
2023/05/28 00:47:00;;;;;;;;;;;;;;;13.44;64.20;100550.83;1542387;84;21448;-82
2023/05/28 00:49:28;;;;;;;11.37;3.67;;;;;;;13.42;64.37;100546.16;1530329;84;20291;-82
2023/05/28 00:51:55;;;;;;;7.97;3.33;;;;;;;13.41;64.01;100543.18;1530411;84;22403;-81
2023/05/28 00:54:23;;;;;;;14.70;3.53;;;;;;;13.37;63.92;100541.83;1536957;84;21967;-81
2023/05/28 00:56:50;;;;;;;10.03;3.20;;;;;;;13.37;64.33;100536.51;1540033;84;21368;-82
2023/05/28 00:59:18;;;;;;;10.20;3.53;;;;;;;13.36;64.36;100537.52;1537420;84;21382;-81
2023/05/28 01:01:44;;;;;;;11.57;3.30;;;;;;;13.37;64.29;100537.84;1527466;84;21419;-81
2023/05/28 01:04:11;;;;;;;10.43;3.23;;;;;;;13.35;65.00;100536.34;1539021;84;21456;-80
2023/05/28 01:06:38;;;;;;;9.03;3.23;;;;;;;13.34;64.86;100535.51;1533455;84;21625;-82
2023/05/28 01:09:06;;;;;;;8.73;3.10;;;;;;;13.30;64.78;100533.68;1535416;84;21493;-80
2023/05/28 01:11:34;;;;;;;11.33;3.73;;;;;;;13.23;65.62;100531.80;1526238;84;22410;-84
2023/05/28 01:14:00;;;;;;;9.73;4.07;;;;;;;13.21;65.73;100525.83;1496057;85;21576;-81
2023/05/28 01:16:29;;;;;;;7.90;3.67;;;;;;;13.18;65.84;100527.48;1514961;85;21546;-81
2023/05/28 01:18:56;;;;;;;7.27;3.30;;;;;;;13.16;65.63;100519.66;1513523;85;21640;-82
2023/05/28 01:21:30;;;;;;;5.73;2.60;;;;;;;13.16;66.08;100525.48;1514834;85;21420;-82
2023/05/28 01:23:57;;;;;;;8.03;3.50;;;;;;;13.13;66.30;100528.45;1506506;85;21612;-81
2023/05/28 01:26:25;;;;;;;7.73;2.73;;;;;;;13.09;66.48;100518.16;1509064;85;21582;-81
2023/05/28 01:28:52;;;;;;;17.30;3.10;;;;;;;13.13;65.95;100516.50;1506825;85;21383;-81
2023/05/28 01:31:18;;;;;;;6.73;3.50;;;;;;;13.16;66.60;100522.81;1503582;85;21389;-80
2023/05/28 01:33:45;;;;;;;12.30;2.90;;;;;;;13.18;65.83;100520.84;1510176;85;21563;-81
2023/05/28 01:36:26;;;;;;;6.87;3.17;;;;;;;13.21;65.85;100523.17;1510599;85;22226;-80
2023/05/28 01:38:59;;;;;;;10.38;3.12;;;;;;;13.23;65.78;100521.16;1516098;85;21605;-81
2023/05/28 01:41:23;;;;;;;;;;;;;;;13.23;66.21;100523.31;1515961;85;21368;-81
2023/05/28 01:43:52;;;;;;;13.87;3.43;;;;;;;13.24;66.18;100510.38;1513072;85;20293;-81
2023/05/28 01:46:20;;;;;;;8.63;3.03;;;;;;;13.23;65.89;100511.36;1515821;85;21552;-80
2023/05/28 01:48:47;;;;;;;11.03;4.03;;;;;;;13.20;66.77;100506.88;1522647;85;21738;-81
2023/05/28 01:51:24;;;;;;;15.50;3.53;;;;;;;13.21;66.54;100511.21;1511868;85;21440;-82
2023/05/28 01:53:51;;;;;;;6.87;2.93;;;;;;;13.18;66.35;100504.90;1502982;85;21561;-81
2023/05/28 01:56:17;;;;;;;10.53;3.13;;;;;;;13.15;66.77;100500.73;1521685;85;21478;-82
2023/05/28 01:58:43;;;;;;;10.83;3.37;;;;;;;13.15;66.60;100500.73;1511312;84;21757;-81
2023/05/28 02:01:32;;;;;;;8.57;3.97;;;;;;;13.15;66.94;100502.53;1515377;85;21412;-81
2023/05/28 02:04:00;;;;;;;7.87;2.70;;;;;;;13.15;66.81;100507.84;1512849;85;21571;-81
2023/05/28 02:06:31;;;;;;;11.00;2.77;;;;;;;13.16;66.93;100501.56;1504000;85;21516;-81
2023/05/28 02:08:57;;;;;;;8.55;3.10;;;;;;;13.15;66.42;100499.88;1513841;85;21435;-81
2023/05/28 02:11:24;;;;;;;6.57;2.90;;;;;;;13.16;66.52;100504.22;1508671;85;21440;-81
2023/05/28 02:13:52;;;;;;;5.93;2.77;;;;;;;13.11;67.06;100504.69;1543307;83;21565;-81
2023/05/28 02:16:18;;;;;;;9.73;3.47;;;;;;;13.08;67.12;100499.20;1545297;83;21603;-82
2023/05/28 02:18:45;;;;;;;7.27;2.93;;;;;;;13.05;67.58;100499.53;1542479;84;22045;-80
2023/05/28 02:21:12;;;;;;;8.00;3.23;;;;;;;13.02;66.98;100501.18;1544797;84;21693;-80
2023/05/28 02:23:43;;;;;;;7.47;2.93;;;;;;;12.99;67.42;100502.83;1541647;84;21441;-82
2023/05/28 02:26:10;;;;;;;5.03;2.83;;;;;;;12.94;67.50;100495.84;1546756;84;22402;-80
2023/05/28 02:28:36;;;;;;;11.03;3.10;;;;;;;12.93;67.58;100507.97;1537977;84;21440;-80
2023/05/28 02:31:02;;;;;;;9.80;3.43;;;;;;;12.92;67.85;100497.84;1536631;84;21477;-79
2023/05/28 02:33:29;;;;;;;10.60;3.27;;;;;;;12.90;67.64;100501.15;1544910;84;22321;-80
2023/05/28 02:35:55;;;;;;;12.33;3.27;;;;;;;12.88;67.81;100501.80;1545503;84;21418;-80
2023/05/28 02:38:22;;;;;;;7.07;2.90;;;;;;;12.85;67.81;100510.09;1542582;84;22380;-80
2023/05/28 02:40:48;;;;;;;7.20;3.30;;;;;;;12.80;68.00;100501.77;1553910;84;21456;-80
2023/05/28 02:43:14;;;;;;;11.90;3.37;;;;;;;12.77;67.93;100508.22;1543765;84;21389;-81
2023/05/28 02:45:40;;;;;;;4.57;2.80;;;;;;;12.71;68.41;100501.40;1536686;84;21507;-82
2023/05/28 02:48:06;;;;;;;9.37;3.40;;;;;;;12.69;69.87;100507.36;1541864;84;22364;-82
2023/05/28 02:50:32;;;;;;;7.23;3.00;;;;;;;12.65;72.03;100511.66;1543866;84;23123;-80
2023/05/28 02:52:59;;;;;;;10.03;3.20;;;;;;;12.63;74.78;100520.30;1540528;84;21485;-81
2023/05/28 02:55:25;;;;;;;6.77;2.80;;;;;;;12.64;72.08;100511.84;1548195;84;21507;-81
2023/05/28 02:57:52;;;;;;;8.73;3.50;;;;;;;12.62;72.15;100514.63;1537752;84;21367;-81
2023/05/28 03:00:19;;;;;;;12.57;2.83;;;;;;;12.61;72.97;100512.98;1543249;84;21454;-82
2023/05/28 03:02:46;;;;;;;8.07;3.37;;;;;;;12.62;73.85;100518.62;1540855;84;21654;-80
2023/05/28 03:05:12;;;;;;;10.37;3.43;;;;;;;12.59;75.99;100516.78;1550999;84;21515;-81
2023/05/28 03:07:38;;;;;;;8.27;3.67;;;;;;;12.56;72.92;100512.62;1534797;84;21536;-81
2023/05/28 03:10:06;;;;;;;10.77;3.00;;;;;;;12.55;72.69;100517.60;1545343;84;21555;-81
2023/05/28 03:12:33;;;;;;;10.13;3.90;;;;;;;12.54;72.25;100512.44;1540253;84;22322;-80
2023/05/28 03:14:59;;;;;;;7.00;4.07;;;;;;;12.52;72.02;100509.95;1544211;84;21559;-81
2023/05/28 03:17:25;;;;;;;8.40;2.40;;;;;;;12.51;72.34;100508.27;1540465;83;22440;-82
2023/05/28 03:19:52;;;;;;;5.17;2.97;;;;;;;12.55;70.17;100512.80;1555042;84;21426;-81
2023/05/28 03:22:19;;;;;;;6.33;2.60;;;;;;;12.57;71.65;100508.99;1531262;84;21478;-80
2023/05/28 03:24:47;;;;;;;5.70;2.80;;;;;;;12.59;71.46;100510.14;1544400;84;22063;-81
2023/05/28 03:27:13;;;;;;;7.20;3.00;;;;;;;12.60;69.46;100513.12;1544850;83;21644;-80
2023/05/28 03:29:41;;;;;;;11.27;2.93;;;;;;;12.62;69.57;100508.50;1538030;83;22400;-81
2023/05/28 03:32:07;;;;;;;9.80;2.97;;;;;;;12.59;68.75;100506.16;1549433;84;21575;-81
2023/05/28 03:34:35;;;;;;;6.60;2.43;;;;;;;12.60;68.03;100501.17;1528274;84;22240;-82
2023/05/28 03:37:03;;;;;;;5.93;2.53;;;;;;;12.61;67.58;100508.17;1544412;83;21455;-82
2023/05/28 03:39:29;;;;;;;7.10;3.33;;;;;;;12.61;67.82;100514.81;1548385;83;21404;-81
2023/05/28 03:41:55;;;;;;;6.23;2.30;;;;;;;12.62;69.16;100512.48;1528217;84;21507;-81
2023/05/28 03:44:21;;;;;;;6.00;2.70;;;;;;;12.62;69.72;100517.29;1542846;84;21338;-81
2023/05/28 03:46:47;;;;;;;11.10;3.73;;;;;;;12.65;67.52;100518.30;1541308;84;21448;-81
2023/05/28 03:49:14;;;;;;;8.73;2.70;;;;;;;12.62;66.44;100518.62;1546526;83;21427;-80
2023/05/28 03:51:40;;;;;;;6.63;3.30;;;;;;;12.70;67.07;100522.31;1550738;83;21570;-81
2023/05/28 03:54:06;;;;;;;7.30;3.20;;;;;;;12.73;66.89;100522.83;1548408;83;21581;-82
2023/05/28 03:56:33;;;;;;;7.23;3.00;;;;;;;12.74;66.96;100521.00;1538939;83;21396;-82
2023/05/28 03:58:59;;;;;;;14.37;4.80;;;;;;;12.77;70.48;100525.98;1525551;84;22394;-82
2023/05/28 04:01:26;;;;;;;7.67;2.77;;;;;;;12.79;66.48;100518.70;1543952;83;21434;-83
2023/05/28 04:03:53;;;;;;;11.23;3.10;;;;;;;12.80;65.45;100520.36;1546775;83;22283;-80
2023/05/28 04:06:20;;;;;;;9.40;3.17;;;;;;;12.85;65.32;100523.38;1541989;83;22254;-80
2023/05/28 04:08:46;;;;;;;6.03;3.17;;;;;;;12.89;66.13;100515.44;1538030;84;21360;-82
2023/05/28 04:11:12;;;;;;;4.73;2.50;;;;;;;12.88;65.46;100512.42;1529380;84;21470;-83
2023/05/28 04:13:38;;;;;;;5.33;2.47;;;;;;;12.91;64.00;100511.27;1543633;83;22343;-81
2023/05/28 04:16:05;;;;;;;6.23;2.97;;;;;;;12.92;63.69;100512.45;1544563;83;22462;-82
2023/05/28 04:18:32;;;;;;;5.03;2.40;;;;;;;12.98;65.13;100506.50;1547333;83;21420;-83
2023/05/28 04:20:58;;;;;;;7.23;3.40;;;;;;;13.03;63.88;100515.30;1520271;84;22401;-85
2023/05/28 04:23:24;;;;;;;10.43;2.83;;;;;;;13.07;63.89;100512.16;1547103;83;22410;-85
2023/05/28 04:25:53;;;;;;;7.63;3.23;;;;;;;13.14;64.01;100506.20;1542281;83;21434;-86
2023/05/28 04:28:19;;;;;;;7.47;2.80;;;;;;;13.18;64.59;100508.88;1543591;83;21485;-85
2023/05/28 04:30:45;;;;;;;6.37;2.80;;;;;;;13.20;62.43;100508.20;1540597;83;21418;-85
2023/05/28 04:33:11;;;;;;;11.00;3.70;;;;;;;13.22;62.65;100501.73;1541239;83;21375;-85
2023/05/28 04:35:38;;;;;;;5.60;2.60;;;;;;;13.27;62.98;100504.77;1546538;83;21603;-86
2023/05/28 04:38:04;;;;;;;6.43;2.70;;;;;;;13.36;62.73;100502.95;1540813;83;22349;-85
2023/05/28 04:40:30;;;;;;;10.93;3.73;;;;;;;13.44;61.64;100499.49;1549670;83;21412;-85
2023/05/28 04:42:56;;;;;;;13.30;4.17;;;;;;;13.47;61.34;100492.01;1544029;84;21677;-85
2023/05/28 04:45:22;;;;;;;7.53;2.87;;;;;;;13.54;61.82;100490.34;1552019;83;21537;-85
2023/05/28 04:47:50;;;;;;;10.47;4.10;;;;;;;13.61;61.42;100492.33;1540603;84;21478;-84
2023/05/28 04:50:16;;;;;;;9.30;2.80;;;;;;;13.69;61.42;100497.66;1550020;83;22290;-85
2023/05/28 04:52:42;;;;;;;8.17;2.90;;;;;;;13.74;60.46;100507.30;1546016;83;21670;-86
2023/05/28 04:55:09;;;;;;;12.90;3.10;;;;;;;13.81;60.63;100512.31;1545307;84;21434;-85
2023/05/28 04:57:36;;;;;;;7.70;3.20;;;;;;;13.86;60.62;100505.97;1533124;83;21463;-86
2023/05/28 05:00:03;;;;;;;6.83;2.73;;;;;;;13.95;60.65;100514.30;1541537;83;21618;-85
2023/05/28 05:02:29;;;;;;;6.40;2.53;;;;;;;14.05;60.21;100510.63;1529819;84;21442;-86
2023/05/28 05:04:56;;;;;;;5.90;2.73;;;;;;;14.08;59.65;100509.78;1538065;84;21419;-85
2023/05/28 05:07:23;;;;;;;9.50;2.37;;;;;;;14.19;60.01;100508.61;1536862;83;21470;-83
2023/05/28 05:09:49;;;;;;;6.83;2.60;;;;;;;14.25;59.41;100510.59;1545709;83;21462;-85
2023/05/28 05:12:15;;;;;;;10.57;4.10;;;;;;;14.29;58.59;100509.75;1537277;84;21360;-86
2023/05/28 05:14:41;;;;;;;6.77;3.00;;;;;;;14.34;58.30;100509.56;1542788;83;21633;-86
2023/05/28 05:17:08;;;;;;;10.30;3.17;;;;;;;14.42;57.93;100518.87;1543221;84;22343;-86
2023/05/28 05:19:35;;;;;;;7.37;2.70;;;;;;;14.47;58.84;100514.86;1541154;83;21405;-85
2023/05/28 05:22:03;;;;;;;13.67;3.83;;;;;;;14.54;58.66;100510.55;1541966;83;21521;-85
2023/05/28 05:24:30;;;;;;;6.47;3.37;;;;;;;14.55;58.34;100509.54;1544408;83;21714;-86
2023/05/28 05:26:56;;;;;;;7.37;2.60;;;;;;;14.55;57.31;100513.03;1542121;83;21485;-85
2023/05/28 05:29:22;;;;;;;7.47;2.57;;;;;;;14.57;58.02;100508.88;1541571;84;22313;-86
2023/05/28 05:31:49;;;;;;;6.37;2.50;;;;;;;14.63;58.25;100513.00;1542864;83;21514;-84
2023/05/28 05:34:16;;;;;;;6.27;2.27;;;;;;;14.65;58.10;100512.84;1541006;84;21500;-86
2023/05/28 05:36:42;;;;;;;7.63;2.80;;;;;;;14.58;57.29;100509.20;1544043;84;21448;-88
2023/05/28 05:39:08;;;;;;;3.83;2.40;;;;;;;14.61;57.98;100511.52;1540897;84;21478;-87
2023/05/28 05:41:34;;;;;;;7.50;3.00;;;;;;;14.70;58.21;100515.80;1543664;83;21603;-84
2023/05/28 05:44:00;;;;;;;6.93;2.60;;;;;;;14.84;58.45;100516.41;1546378;83;22320;-85
2023/05/28 05:46:27;;;;;;;6.70;2.20;;;;;;;14.99;57.77;100513.02;1538955;83;21462;-85
2023/05/28 05:48:53;;;;;;;8.17;3.27;;;;;;;15.12;56.35;100511.96;1528026;84;21383;-84
2023/05/28 05:51:19;;;;;;;6.47;2.73;;;;;;;15.22;57.42;100515.25;1528381;84;21485;-85
2023/05/28 05:53:45;;;;;;;6.47;2.30;;;;;;;15.33;57.13;100509.99;1539914;84;21629;-84
2023/05/28 05:56:11;;;;;;;6.10;2.60;;;;;;;15.40;56.39;100511.47;1541851;83;21345;-84
2023/05/28 05:58:37;;;;;;;8.67;3.50;;;;;;;15.47;56.46;100512.41;1540530;84;22364;-85
2023/05/28 06:01:05;;;;;;;7.03;3.07;;;;;;;15.60;56.98;100508.66;1542702;84;21383;-84
2023/05/28 06:03:31;;;;;;;6.53;2.67;;;;;;;15.73;56.78;100510.74;1536125;83;21560;-84
2023/05/28 06:05:57;;;;;;;8.00;3.10;;;;;;;15.84;55.96;100513.50;1538196;84;22314;-83
2023/05/28 06:08:23;;;;;;;16.67;3.20;;;;;;;15.86;55.51;100510.98;1543760;84;21633;-84
2023/05/28 06:10:49;;;;;;;5.47;2.73;;;;;;;15.97;56.34;100518.55;1537911;84;21433;-82
2023/05/28 06:13:16;;;;;;;6.40;2.77;;;;;;;16.17;55.76;100527.37;1545022;84;23006;-85
2023/05/28 06:15:42;;;;;;;7.00;3.50;;;;;;;16.31;55.38;100519.05;1553295;83;21426;-85
2023/05/28 06:18:09;;;;;;;5.70;2.50;;;;;;;16.39;55.09;100525.66;1539852;84;21585;-85
2023/05/28 06:20:36;;;;;;;6.60;2.57;;;;;;;16.47;54.29;100518.89;1543313;83;21639;-85
2023/05/28 06:23:02;;;;;;;6.07;2.83;;;;;;;16.55;54.07;100528.16;1539454;83;21763;-83
2023/05/28 06:25:28;;;;;;;4.97;2.60;;;;;;;16.64;53.19;100529.72;1543884;83;21544;-84
2023/05/28 06:27:55;;;;;;;12.43;3.07;;;;;;;16.77;53.39;100529.59;1540516;83;22321;-83
2023/05/28 06:30:22;;;;;;;12.73;2.77;;;;;;;16.96;53.79;100526.36;1547576;83;21419;-86
2023/05/28 06:32:48;;;;;;;6.00;3.40;;;;;;;17.05;53.63;100523.89;1540451;83;22299;-84
2023/05/28 06:35:14;;;;;;;9.63;3.43;;;;;;;17.13;52.94;100529.14;1544415;84;21507;-85
2023/05/28 06:37:40;;;;;;;11.47;3.37;;;;;;;17.18;52.73;100529.09;1545281;84;21633;-83
2023/05/28 06:40:10;;;;;;;9.53;2.67;;;;;;;17.29;52.56;100528.58;1544994;83;22372;-85
2023/05/28 06:42:38;;;;;;;6.73;3.87;;;;;;;17.27;51.61;100523.95;1533657;83;21499;-84
2023/05/28 06:45:07;;;;;;;7.50;2.87;;;;;;;17.35;52.43;100535.87;1544448;83;21484;-83
2023/05/28 06:47:34;;;;;;;10.33;3.87;;;;;;;17.28;52.20;100535.78;1544843;83;21563;-85
2023/05/28 06:50:00;;;;;;;19.00;5.13;;;;;;;17.21;52.32;100531.39;1545477;83;21448;-85
2023/05/28 06:52:27;;;;;;;18.60;4.43;;;;;;;17.18;52.11;100531.26;1539465;83;21478;-87
2023/05/28 06:54:53;;;;;;;6.83;2.90;;;;;;;17.19;52.50;100533.42;1551741;83;22505;-86
2023/05/28 06:57:20;;;;;;;9.50;3.53;;;;;;;17.19;52.19;100534.75;1536679;83;21419;-87
2023/05/28 06:59:47;;;;;;;7.43;2.87;;;;;;;17.26;52.29;100527.63;1547182;84;21434;-88
2023/05/28 07:02:13;;;;;;;15.87;4.17;;;;;;;17.41;52.71;100531.09;1544536;83;21338;-87
2023/05/28 07:04:40;;;;;;;8.53;3.83;;;;;;;17.73;52.59;100528.94;1534639;84;22475;-87
2023/05/28 07:07:06;;;;;;;11.07;3.23;;;;;;;18.00;51.68;100520.12;1546701;83;21448;-87
2023/05/28 07:09:32;;;;;;;12.77;3.63;;;;;;;18.22;51.97;100522.78;1539627;83;21485;-85
2023/05/28 07:11:58;;;;;;;11.00;3.37;;;;;;;18.40;50.55;100516.39;1543796;83;21434;-87
2023/05/28 07:14:25;;;;;;;13.43;3.53;;;;;;;18.60;50.05;100514.35;1536743;83;21559;-87
2023/05/28 07:16:52;;;;;;;194.00;134.75;;;;;;;18.76;50.33;100514.55;1540346;83;21403;-86
2023/05/28 07:19:18;;;;;;;15.30;10.18;;;;;;;19.03;50.25;100514.17;1543166;83;21809;-86
2023/05/28 07:21:46;;;;;;;15.38;5.08;;;;;;;19.21;48.57;100507.72;1546816;84;22476;-86
2023/05/28 07:24:13;;;;;;;8.90;4.25;;;;;;;19.48;48.59;100502.40;1540492;83;21688;-88
2023/05/28 07:26:39;;;;;;;9.18;4.17;;;;;;;19.56;48.61;100509.77;1541119;84;21507;-86
2023/05/28 07:29:06;;;;;;;12.75;5.17;;;;;;;19.49;47.22;100506.76;1546956;84;21434;-87
2023/05/28 07:31:32;;;;;;;11.25;3.85;;;;;;;19.42;48.51;100508.09;1547166;83;21937;-87
2023/05/28 07:33:58;;;;;;;16.85;5.00;;;;;;;19.47;47.86;100504.78;1535612;84;21382;-87
2023/05/28 07:36:24;;;;;;;10.90;3.92;;;;;;;19.63;48.52;100501.72;1539595;83;21448;-88
2023/05/28 07:38:50;;;;;;;6.62;3.65;;;;;;;19.71;47.50;100505.58;1545887;83;22342;-88
2023/05/28 07:41:17;;;;;;;11.55;4.00;;;;;;;19.65;47.64;100502.38;1540648;84;21449;-88
2023/05/28 07:43:43;;;;;;;11.03;3.75;;;;;;;19.63;47.59;100503.06;1542268;83;22026;-87
2023/05/28 07:46:09;;;;;;;5.87;3.27;;;;;;;19.68;47.50;100491.23;1549430;84;21455;-88
2023/05/28 07:48:35;;;;;;;8.45;3.60;;;;;;;19.81;47.81;100488.53;1538652;83;21441;-87
2023/05/28 07:51:01;;;;;;;9.45;4.30;;;;;;;20.08;47.78;100489.84;1542906;83;21634;-89
2023/05/28 07:53:28;;;;;;;14.55;4.75;;;;;;;20.12;45.63;100495.13;1535903;84;21554;-87
2023/05/28 07:55:55;;;;;;;12.03;4.00;;;;;;;20.21;47.02;100490.36;1539095;84;21577;-87
2023/05/28 07:58:21;;;;;;;10.63;5.67;;;;;;;20.20;46.26;100489.55;1543354;83;21515;-89
2023/05/28 08:00:47;;;;;;;8.15;3.95;;;;;;;20.22;46.29;100492.83;1536962;84;22276;-86
2023/05/28 08:03:14;;;;;;;9.30;4.20;;;;;;;20.27;46.42;100484.15;1539353;83;21449;-87
2023/05/28 08:05:40;;;;;;;11.53;4.15;;;;;;;20.44;46.49;100485.87;1541667;83;21596;-86
2023/05/28 08:08:06;;;;;;;10.50;4.70;;;;;;;20.58;46.87;100484.83;1538476;84;22350;-87
2023/05/28 08:10:33;;;;;;;21.97;5.67;;;;;;;20.80;46.73;100487.22;1541545;84;21448;-87
2023/05/28 08:12:59;;;;;;;12.95;5.37;;;;;;;21.04;46.46;100487.02;1538706;83;21434;-87
2023/05/28 08:15:25;;;;;;;11.08;4.47;;;;;;;21.23;45.92;100483.38;1543972;83;21493;-86
2023/05/28 08:17:52;;;;;;;9.63;4.17;;;;;;;21.48;45.88;100480.77;1541853;84;21602;-88
2023/05/28 08:20:19;;;;;;;9.45;5.20;;;;;;;22.06;44.91;100475.09;1541576;83;21366;-88
2023/05/28 08:22:45;;;;;;;9.48;4.15;;;;;;;22.06;44.91;100475.09;1542509;84;21580;-87
2023/05/28 08:25:11;;;;;;;11.25;4.60;;;;;;;22.37;45.05;100477.94;1542134;83;22314;-88
2023/05/28 08:27:38;;;;;;;10.63;4.08;;;;;;;22.51;43.04;100472.17;1540460;84;21544;-87
2023/05/28 08:30:05;;;;;;;11.83;4.25;;;;;;;22.72;43.71;100474.92;1536078;84;22428;-86
2023/05/28 08:32:37;;;;;;;15.68;4.85;;;;;;;22.97;43.59;100472.15;1543031;83;21455;-87
2023/05/28 08:35:04;;;;;;;6.87;4.28;;;;;;;23.10;42.09;100468.97;1537779;83;21456;-87
2023/05/28 08:37:31;;;;;;;10.23;4.75;;;;;;;23.28;42.79;100468.11;1544399;83;21419;-86
2023/05/28 08:40:30;;;;;;;6.87;3.95;;;;;;;23.35;42.08;100462.89;1539218;83;21654;-87
2023/05/28 08:42:56;;;;;;;16.95;3.92;;;;;;;23.37;42.32;100462.14;1532954;84;21426;-86
2023/05/28 08:45:22;;;;;;;6.80;4.33;;;;;;;23.48;42.03;100461.03;1548915;83;21614;-88
2023/05/28 08:47:51;;;;;;;9.20;4.78;;;;;;;23.61;42.07;100460.30;1542141;83;21485;-88
2023/05/28 08:50:18;;;;;;;14.70;5.08;;;;;;;23.70;41.35;100452.70;1542752;83;21500;-87
2023/05/28 08:52:46;;;;;;;13.03;4.55;;;;;;;23.80;41.73;100451.61;1541381;84;21626;-87
2023/05/28 08:55:13;;;;;;;17.87;4.35;;;;;;;23.72;41.35;100450.59;1630103;84;21405;-86
2023/05/28 08:57:39;;;;;;;10.40;5.05;;;;;;;23.75;40.45;100447.42;1465325;84;21322;-86
2023/05/28 09:00:08;;;;;;;6.92;3.90;;;;;;;23.82;41.43;100449.50;1458675;83;21427;-86
2023/05/28 09:02:35;;;;;;;7.45;3.65;;;;;;;23.92;41.20;100445.38;1455972;83;21346;-86
2023/05/28 09:05:03;;;;;;;8.53;4.15;;;;;;;23.92;40.44;100444.03;1449931;84;21559;-86
2023/05/28 09:07:29;;;;;;;8.43;4.90;;;;;;;23.78;39.81;100441.55;1575112;83;21469;-86
2023/05/28 09:09:57;;;;;;;8.85;3.92;;;;;;;23.87;41.23;100441.48;1526197;84;21588;-88
2023/05/28 09:12:24;;;;;;;8.63;4.45;;;;;;;23.95;40.86;100439.50;1544040;84;21522;-86
2023/05/28 09:14:53;;;;;;;13.32;5.03;;;;;;;24.12;41.11;100439.08;1539760;84;21615;-86
2023/05/28 09:17:37;;;;;;;11.53;5.47;;;;;;;24.19;40.48;100437.06;1545578;83;21477;-87
2023/05/28 09:20:12;;;;;;;13.60;4.73;;;;;;;24.27;40.62;100430.47;1582503;84;21728;-86
2023/05/28 09:22:38;;;;;;;10.80;5.83;;;;;;;24.26;40.07;100427.48;1511625;84;21625;-85
2023/05/28 09:25:08;;;;;;;10.68;5.25;;;;;;;24.36;40.45;100425.52;1537325;83;21433;-86
2023/05/28 09:27:36;;;;;;;11.35;5.08;;;;;;;24.35;40.25;100429.30;1536502;84;21426;-86
2023/05/28 09:30:07;;;;;;;8.20;5.17;;;;;;;24.35;40.35;100430.11;1540673;84;21463;-87
2023/05/28 09:32:35;;;;;;;10.38;4.25;;;;;;;24.03;39.64;100426.45;1540085;83;21389;-85
2023/05/28 09:35:03;;;;;;;13.93;5.25;;;;;;;24.00;39.60;100427.47;1543327;83;21574;-84
2023/05/28 09:37:30;;;;;;;10.10;4.92;;;;;;;24.10;41.12;100430.37;1543997;83;21558;-87
2023/05/28 09:47:18;;;;;;;7.22;4.72;;;;;;;24.75;39.42;100431.49;1543479;83;21574;-86
2023/05/28 09:49:49;;;;;;;16.45;5.35;;;;;;;24.84;38.62;100422.45;1538125;83;21478;-85
2023/05/28 09:52:19;;;;;;;12.40;5.62;;;;;;;25.05;39.68;100418.77;1525669;84;21470;-86
2023/05/28 09:54:51;;;;;;;;;;;;;;;25.23;39.20;100416.39;1547976;83;21471;-85
2023/05/28 09:57:28;;;;;;;12.98;5.03;;;;;;;25.24;38.91;100414.00;1539591;84;20313;-86
2023/05/28 09:59:55;;;;;;;22.37;4.83;;;;;;;25.43;39.44;100405.89;1540906;83;21456;-88
2023/05/28 10:03:04;;;;;;;16.42;11.33;;;;;;;25.56;38.84;100402.86;1540147;83;21589;-87
2023/05/28 10:05:33;;;;;;;10.80;4.33;;;;;;;25.70;39.21;100405.25;1468295;88;21448;-85
2023/05/28 10:08:02;;;;;;;8.40;4.67;;;;;;;25.85;38.05;100391.94;1468655;88;22337;-86
2023/05/28 10:10:31;;;;;;;10.53;4.55;;;;;;;25.62;37.61;100399.16;1489047;86;21626;-85
2023/05/28 10:12:58;;;;;;;9.90;4.40;;;;;;;25.49;37.70;100396.81;1466027;88;21611;-85
2023/05/28 10:15:26;;;;;;;10.93;4.37;;;;;;;25.43;38.42;100395.91;1448627;89;21437;-85
2023/05/28 10:18:00;;;;;;;9.03;4.53;;;;;;;25.42;37.47;100385.30;1528332;88;21511;-85
2023/05/28 10:20:26;;;;;;;7.37;4.37;;;;;;;25.37;37.40;100387.92;1534309;89;22293;-85
2023/05/28 10:22:53;;;;;;;12.00;4.80;;;;;;;25.46;38.21;100391.85;1519882;88;21287;-84
2023/05/28 10:25:20;;;;;;;8.08;5.10;;;;;;;25.48;37.80;100388.91;1391607;88;21391;-84
2023/05/28 10:27:48;;;;;;;8.85;4.15;;;;;;;25.48;37.95;100376.18;1451027;88;21501;-85
2023/05/28 10:30:36;;;;;;;8.50;4.33;;;;;;;25.59;37.92;100371.74;1461212;88;21356;-85
2023/05/28 10:33:13;;;;;;;7.25;4.45;;;;;;;25.60;36.49;100372.84;1443343;89;22373;-81
2023/05/28 10:35:53;;;;;;;10.10;4.80;;;;;;;25.63;37.52;100365.56;1434746;90;22684;-83
2023/05/28 10:38:19;;;;;;;;;;;;;;;25.83;38.12;100371.03;1445340;89;21574;-83
2023/05/28 10:40:46;;;;;;;10.68;4.37;;;;;;;26.08;37.48;100372.73;1460549;87;20297;-85
2023/05/28 10:43:45;;;;;;;11.10;4.28;;;;;;;26.22;36.11;100367.75;1435427;88;21435;-84
2023/05/28 10:46:18;;;;;;;11.43;5.08;;;;;;;26.26;36.41;100359.92;1405952;90;21596;-84
2023/05/28 10:49:05;;;;;;;5.72;3.77;;;;;;;26.04;35.67;100352.63;1437252;88;21411;-84
2023/05/28 10:52:00;;;;;;;6.25;4.00;;;;;;;26.16;37.13;100361.17;1468905;87;21471;-83
2023/05/28 10:54:38;;;;;;;13.20;4.55;;;;;;;26.44;36.79;100351.98;1453492;89;21405;-81
2023/05/28 10:57:13;;;;;;;10.05;4.62;;;;;;;26.63;36.09;100351.14;1467962;89;22454;-85
2023/05/28 10:59:51;;;;;;;7.60;4.80;;;;;;;26.62;34.89;100345.44;1521573;89;21346;-85
2023/05/28 11:02:25;;;;;;;6.45;4.20;;;;;;;26.77;36.02;100351.02;1366418;91;21420;-84
2023/05/28 11:04:55;;;;;;;16.77;5.58;;;;;;;26.89;34.92;100346.23;1421651;89;21479;-83
2023/05/28 11:07:25;;;;;;;12.75;4.40;;;;;;;26.99;35.21;100344.98;1376730;89;22292;-85
2023/05/28 11:09:51;;;;;;;8.28;4.58;;;;;;;26.96;35.36;100348.77;1372735;89;21395;-85
2023/05/28 11:12:20;;;;;;;7.85;3.92;;;;;;;26.80;36.06;100356.47;1393709;88;21481;-83
2023/05/28 11:14:48;;;;;;;8.23;4.08;;;;;;;26.63;34.49;100349.78;1389047;88;21407;-84
2023/05/28 11:17:14;;;;;;;9.13;4.30;;;;;;;26.71;35.54;100346.07;1360480;91;21627;-81
2023/05/28 11:19:45;;;;;;;6.40;3.60;;;;;;;26.71;36.14;100342.55;1537181;89;21318;-82
2023/05/28 11:22:13;;;;;;;7.80;4.87;;;;;;;27.05;36.58;100342.31;1542242;88;21559;-82
2023/05/28 11:25:01;;;;;;;7.42;3.75;;;;;;;27.08;36.39;100336.36;1376899;89;21434;-82
2023/05/28 11:27:30;;;;;;;13.18;4.47;;;;;;;27.06;35.80;100327.65;1439856;89;22322;-83
2023/05/28 11:30:00;;;;;;;6.72;4.42;;;;;;;27.25;36.37;100334.36;1455164;89;21596;-85
2023/05/28 11:32:28;;;;;;;9.20;3.87;;;;;;;27.51;35.37;100325.02;1455997;89;22550;-84